Time;durP1;ratioP1;P1;durP2;ratioP2;P2;SDS_P1;SDS_P2;PMS_P1;PMS_P2;Temp;Humidity;BMP_temperature;BMP_pressure;BME280_temperature;BME280_humidity;BME280_pressure;Samples;Min_cycle;Max_cycle;Signal;HPM_P1;HPM_P2
2023/12/17 00:02:34;;;;;;;;;;;9.00;99.90;;;;;;5039102;28;20255;-75
2023/12/17 00:05:20;;;;;;;;;;;9.00;99.90;;;;;;5025257;28;19924;-75
2023/12/17 00:08:06;;;;;;;;;;;9.00;99.90;;;;;;5037709;28;19919;-76
2023/12/17 00:10:52;;;;;;;;;;;9.00;99.90;;;;;;5018142;28;19996;-76
2023/12/17 00:13:41;;;;;;;;;;;9.00;99.90;;;;;;5004655;28;20308;-75
2023/12/17 00:16:29;;;;;;;;;;;9.00;99.90;;;;;;5034594;28;19920;-75
2023/12/17 00:19:15;;;;;;;;;;;9.00;99.90;;;;;;5023759;28;19909;-76
2023/12/17 00:22:01;;;;;;;;;;;9.00;99.90;;;;;;5015875;28;19939;-76
2023/12/17 00:24:47;;;;;;;;;;;9.00;99.90;;;;;;5028236;28;19955;-76
2023/12/17 00:27:34;;;;;;;;;;;9.00;99.90;;;;;;4999469;28;20253;-76
2023/12/17 00:30:20;;;;;;;;;;;9.00;99.90;;;;;;5028663;28;20429;-76
2023/12/17 00:33:05;;;;;;;;;;;9.00;99.90;;;;;;5009014;28;20032;-76
2023/12/17 00:35:52;;;;;;;;;;;9.00;99.90;;;;;;5019269;28;19940;-76
2023/12/17 00:38:37;;;;;;;;;;;9.00;99.90;;;;;;5017529;28;19913;-75
2023/12/17 00:41:23;;;;;;;;;;;9.00;99.90;;;;;;5009786;28;19909;-76
2023/12/17 00:44:10;;;;;;;;;;;9.10;99.90;;;;;;5035902;28;19909;-76
2023/12/17 00:46:56;;;;;;;;;;;9.10;99.90;;;;;;5022736;28;20313;-75
2023/12/17 00:49:42;;;;;;;;;;;9.00;99.90;;;;;;5021560;28;19909;-75
2023/12/17 00:52:28;;;;;;;;;;;9.00;99.90;;;;;;5036700;28;20337;-76
2023/12/17 00:55:14;;;;;;;;;;;9.00;99.90;;;;;;5023232;28;19913;-75
2023/12/17 00:58:01;;;;;;;;;;;9.10;99.90;;;;;;5009704;28;19920;-76
2023/12/17 01:00:47;;;;;;;;;;;9.10;99.90;;;;;;5003688;28;19922;-75
2023/12/17 01:03:33;;;;;;;;;;;9.10;99.90;;;;;;5019997;28;19913;-75
2023/12/17 01:06:19;;;;;;;;;;;9.10;99.90;;;;;;5022948;28;20333;-75
2023/12/17 01:09:05;;;;;;;;;;;9.10;99.90;;;;;;5022969;28;19992;-75
2023/12/17 01:11:53;;;;;;;;;;;9.10;99.90;;;;;;5023982;28;19908;-76
2023/12/17 01:14:38;;;;;;;;;;;9.00;99.90;;;;;;5024025;28;20333;-76
2023/12/17 01:17:24;;;;;;;;;;;9.10;99.90;;;;;;5014211;28;19996;-76
2023/12/17 01:20:11;;;;;;;;;;;9.00;99.90;;;;;;5016700;28;19968;-76
2023/12/17 01:22:57;;;;;;;;;;;9.10;99.90;;;;;;5030728;28;20337;-75
2023/12/17 01:25:43;;;;;;;;;;;9.10;99.90;;;;;;5009127;28;20388;-76
2023/12/17 01:28:29;;;;;;;;;;;9.10;99.90;;;;;;5022730;28;19939;-76
2023/12/17 01:31:15;;;;;;;;;;;9.00;99.90;;;;;;4998863;28;20032;-76
2023/12/17 01:34:01;;;;;;;;;;;9.10;99.90;;;;;;5023239;28;19909;-76
2023/12/17 01:36:47;;;;;;;;;;;9.10;99.90;;;;;;5008874;28;19913;-75
2023/12/17 01:39:34;;;;;;;;;;;9.00;99.90;;;;;;5009085;28;19909;-75
2023/12/17 01:42:20;;;;;;;;;;;9.00;99.90;;;;;;5010069;28;19920;-75
2023/12/17 01:45:06;;;;;;;;;;;9.00;99.90;;;;;;5029692;28;19913;-75
2023/12/17 01:47:52;;;;;;;;;;;9.00;99.90;;;;;;5036259;28;19943;-75
2023/12/17 01:50:38;;;;;;;;;;;9.00;99.90;;;;;;5036345;28;20135;-75
2023/12/17 01:53:24;;;;;;;;;;;9.00;99.90;;;;;;5022688;28;19967;-75
2023/12/17 01:56:10;;;;;;;;;;;9.00;99.90;;;;;;5036875;28;20086;-75
2023/12/17 01:58:56;;;;;;;;;;;9.00;99.90;;;;;;5009590;28;19909;-75
2023/12/17 02:01:42;;;;;;;;;;;9.00;99.90;;;;;;5021903;28;20011;-75
2023/12/17 02:04:28;;;;;;;;;;;9.00;99.90;;;;;;5022035;28;19921;-76
2023/12/17 02:07:16;;;;;;;;;;;9.00;99.90;;;;;;5036476;28;20033;-75
2023/12/17 02:10:04;;;;;;;;;;;9.00;99.90;;;;;;5021862;28;19909;-76
2023/12/17 02:12:52;;;;;;;;;;;9.00;99.90;;;;;;5007781;28;19909;-75
2023/12/17 02:15:38;;;;;;;;;;;9.00;99.90;;;;;;4988699;28;20355;-75
2023/12/17 02:18:24;;;;;;;;;;;9.00;99.90;;;;;;5021004;28;19916;-77
2023/12/17 02:21:10;;;;;;;;;;;9.00;99.90;;;;;;5007884;28;19909;-76
2023/12/17 02:23:55;;;;;;;;;;;9.00;99.90;;;;;;5008348;28;20253;-75
2023/12/17 02:26:42;;;;;;;;;;;9.00;99.90;;;;;;5020682;28;19975;-76
2023/12/17 02:29:28;;;;;;;;;;;9.00;99.90;;;;;;5002149;28;19910;-75
2023/12/17 02:32:15;;;;;;;;;;;9.00;99.90;;;;;;5016414;28;19909;-76
2023/12/17 02:35:01;;;;;;;;;;;9.00;99.90;;;;;;5026532;28;19909;-75
2023/12/17 02:37:48;;;;;;;;;;;9.00;99.90;;;;;;5008895;28;19967;-75
2023/12/17 02:40:34;;;;;;;;;;;8.90;99.90;;;;;;5022999;28;19913;-76
2023/12/17 02:43:20;;;;;;;;;;;8.90;99.90;;;;;;5008343;28;19916;-76
2023/12/17 02:46:06;;;;;;;;;;;8.90;99.90;;;;;;5021492;28;19920;-76
2023/12/17 02:48:53;;;;;;;;;;;8.90;99.90;;;;;;5034805;28;19912;-75
2023/12/17 02:51:39;;;;;;;;;;;9.00;99.90;;;;;;5009568;28;19963;-76
2023/12/17 02:54:25;;;;;;;;;;;8.90;99.90;;;;;;5018995;28;19974;-76
2023/12/17 02:57:11;;;;;;;;;;;8.90;99.90;;;;;;5014655;28;19923;-76
2023/12/17 02:59:57;;;;;;;;;;;8.90;99.90;;;;;;5015557;28;20310;-76
2023/12/17 03:02:42;;;;;;;;;;;8.90;99.90;;;;;;5015985;28;19924;-77
2023/12/17 03:05:29;;;;;;;;;;;8.90;99.90;;;;;;5014849;28;19921;-76
2023/12/17 03:08:15;;;;;;;;;;;8.90;99.90;;;;;;4996116;28;20219;-77
2023/12/17 03:11:01;;;;;;;;;;;8.90;99.90;;;;;;5017115;28;19975;-76
2023/12/17 03:13:47;;;;;;;;;;;8.90;99.90;;;;;;5028888;28;19910;-77
2023/12/17 03:16:33;;;;;;;;;;;8.90;99.90;;;;;;5028442;28;20338;-76
2023/12/17 03:19:19;;;;;;;;;;;8.90;99.90;;;;;;5015450;28;19913;-76
2023/12/17 03:22:04;;;;;;;;;;;8.90;99.90;;;;;;4995829;28;19921;-76
2023/12/17 03:24:50;;;;;;;;;;;8.90;99.90;;;;;;5008566;28;19910;-77
2023/12/17 03:27:36;;;;;;;;;;;8.90;99.90;;;;;;5001989;28;19920;-76
2023/12/17 03:30:23;;;;;;;;;;;8.90;99.90;;;;;;5014188;28;19913;-76
2023/12/17 03:33:10;;;;;;;;;;;8.90;99.90;;;;;;5013920;28;19913;-76
2023/12/17 03:35:56;;;;;;;;;;;8.90;99.90;;;;;;5013957;28;19909;-76
2023/12/17 03:38:43;;;;;;;;;;;8.90;99.90;;;;;;5014929;28;20341;-77
2023/12/17 03:41:30;;;;;;;;;;;8.90;99.90;;;;;;5014933;28;19927;-76
2023/12/17 03:44:16;;;;;;;;;;;8.90;99.90;;;;;;5014877;28;19945;-76
2023/12/17 03:47:02;;;;;;;;;;;9.00;99.90;;;;;;5016116;28;20452;-76
2023/12/17 03:49:48;;;;;;;;;;;9.00;99.90;;;;;;5015290;28;19913;-77
2023/12/17 03:52:34;;;;;;;;;;;9.00;99.90;;;;;;5014910;28;20472;-77
2023/12/17 03:55:20;;;;;;;;;;;9.00;99.90;;;;;;4982820;28;20575;-76
2023/12/17 03:58:06;;;;;;;;;;;8.90;99.90;;;;;;5008870;28;19996;-77
2023/12/17 04:00:52;;;;;;;;;;;8.90;99.90;;;;;;5014752;28;20242;-76
2023/12/17 04:03:39;;;;;;;;;;;9.00;99.90;;;;;;5007675;28;20325;-76
2023/12/17 04:06:26;;;;;;;;;;;9.00;99.90;;;;;;5007446;28;19919;-76
2023/12/17 04:09:14;;;;;;;;;;;9.00;99.90;;;;;;5015807;28;19924;-75
2023/12/17 04:11:59;;;;;;;;;;;9.00;99.90;;;;;;5013640;28;19992;-77
2023/12/17 04:14:45;;;;;;;;;;;9.00;99.90;;;;;;5023767;28;19923;-76
2023/12/17 04:17:31;;;;;;;;;;;9.00;99.90;;;;;;5022654;28;19913;-77
2023/12/17 04:20:18;;;;;;;;;;;9.00;99.90;;;;;;5023758;28;19995;-76
2023/12/17 04:23:04;;;;;;;;;;;9.00;99.90;;;;;;5004793;28;19989;-76
2023/12/17 04:25:50;;;;;;;;;;;9.00;99.90;;;;;;5017379;28;19967;-77
2023/12/17 04:28:37;;;;;;;;;;;9.00;99.90;;;;;;5023839;28;20222;-77
2023/12/17 04:31:23;;;;;;;;;;;9.00;99.90;;;;;;5009413;28;19948;-77
2023/12/17 04:34:11;;;;;;;;;;;9.00;99.90;;;;;;5010628;28;19917;-76
2023/12/17 04:36:59;;;;;;;;;;;9.00;99.90;;;;;;5022477;28;19913;-75
2023/12/17 04:39:45;;;;;;;;;;;9.00;99.90;;;;;;5023716;28;19963;-76
2023/12/17 04:42:31;;;;;;;;;;;9.00;99.90;;;;;;5023736;28;19909;-76
2023/12/17 04:45:17;;;;;;;;;;;9.00;99.90;;;;;;5023503;28;19988;-76
2023/12/17 04:48:03;;;;;;;;;;;9.00;99.90;;;;;;5023400;28;20266;-76
2023/12/17 04:50:49;;;;;;;;;;;9.00;99.90;;;;;;5023151;28;20380;-77
2023/12/17 04:53:35;;;;;;;;;;;9.00;99.90;;;;;;5023137;28;19909;-77
2023/12/17 04:56:21;;;;;;;;;;;9.00;99.90;;;;;;5022795;28;19917;-77
2023/12/17 04:59:08;;;;;;;;;;;9.00;99.90;;;;;;5023057;28;19955;-75
2023/12/17 05:01:54;;;;;;;;;;;9.00;99.90;;;;;;5010119;28;20460;-75
2023/12/17 05:04:40;;;;;;;;;;;9.00;99.90;;;;;;5014047;28;19909;-76
2023/12/17 05:07:27;;;;;;;;;;;9.00;99.90;;;;;;5027741;28;20595;-76
2023/12/17 05:10:13;;;;;;;;;;;9.00;99.90;;;;;;5017026;28;20004;-75
2023/12/17 05:12:59;;;;;;;;;;;9.00;99.90;;;;;;5004398;28;19913;-75
2023/12/17 05:15:45;;;;;;;;;;;9.00;99.90;;;;;;5004448;28;20281;-75
2023/12/17 05:18:31;;;;;;;;;;;9.00;99.90;;;;;;5017512;28;20353;-76
2023/12/17 05:21:17;;;;;;;;;;;9.00;99.90;;;;;;5017152;28;20234;-76
2023/12/17 05:24:03;;;;;;;;;;;9.00;99.90;;;;;;5017898;28;19921;-75
2023/12/17 05:26:49;;;;;;;;;;;9.00;99.90;;;;;;5008427;28;20291;-76
2023/12/17 05:29:35;;;;;;;;;;;9.00;99.90;;;;;;5009738;28;19916;-76
2023/12/17 05:32:21;;;;;;;;;;;9.00;99.90;;;;;;4989126;28;20269;-76
2023/12/17 05:35:07;;;;;;;;;;;9.10;99.90;;;;;;5016166;28;19909;-77
2023/12/17 05:37:53;;;;;;;;;;;9.10;99.90;;;;;;5023877;28;19924;-76
2023/12/17 05:40:39;;;;;;;;;;;9.00;99.90;;;;;;5025490;28;19966;-76
2023/12/17 05:43:25;;;;;;;;;;;9.00;99.90;;;;;;5003844;28;20523;-76
2023/12/17 05:46:11;;;;;;;;;;;9.10;99.90;;;;;;5007861;28;19995;-77
2023/12/17 05:48:57;;;;;;;;;;;9.10;99.90;;;;;;5022605;28;19913;-77
2023/12/17 05:51:43;;;;;;;;;;;9.00;99.90;;;;;;5021990;28;19909;-76
2023/12/17 05:54:30;;;;;;;;;;;9.00;99.90;;;;;;5022457;28;19913;-76
2023/12/17 05:57:15;;;;;;;;;;;9.10;99.90;;;;;;5021568;28;19913;-76
2023/12/17 06:00:03;;;;;;;;;;;9.00;99.90;;;;;;5037195;28;19944;-76
2023/12/17 06:02:49;;;;;;;;;;;9.10;99.90;;;;;;5016090;28;19921;-76
2023/12/17 06:05:35;;;;;;;;;;;9.10;99.90;;;;;;5017099;28;19917;-77
2023/12/17 06:08:21;;;;;;;;;;;9.10;99.90;;;;;;5009450;28;19929;-76
2023/12/17 06:11:07;;;;;;;;;;;9.10;99.90;;;;;;5014767;28;19909;-76
2023/12/17 06:13:53;;;;;;;;;;;9.10;99.90;;;;;;5002744;28;19909;-77
2023/12/17 06:16:39;;;;;;;;;;;9.10;99.90;;;;;;4999381;28;20250;-76
2023/12/17 06:19:25;;;;;;;;;;;9.10;99.90;;;;;;5015961;28;19922;-76
2023/12/17 06:22:15;;;;;;;;;;;9.10;99.90;;;;;;5014542;28;19913;-77
2023/12/17 06:25:01;;;;;;;;;;;9.10;99.90;;;;;;5015285;28;19910;-76
2023/12/17 06:27:48;;;;;;;;;;;9.10;99.90;;;;;;5015688;28;19920;-76
2023/12/17 06:30:35;;;;;;;;;;;9.10;99.90;;;;;;5014983;28;19919;-76
2023/12/17 06:33:21;;;;;;;;;;;9.10;99.90;;;;;;5014832;28;19948;-76
2023/12/17 06:36:08;;;;;;;;;;;9.10;99.90;;;;;;5015104;28;20318;-77
2023/12/17 06:38:54;;;;;;;;;;;9.10;99.90;;;;;;5014057;28;19909;-76
2023/12/17 06:41:47;;;;;;;;;;;9.10;99.90;;;;;;5015333;28;19913;-76
2023/12/17 06:44:33;;;;;;;;;;;9.10;99.90;;;;;;5029744;28;20322;-76
2023/12/17 06:47:19;;;;;;;;;;;9.10;99.90;;;;;;5026834;28;19922;-76
2023/12/17 06:50:06;;;;;;;;;;;9.10;99.90;;;;;;5020324;28;19913;-76
2023/12/17 06:52:51;;;;;;;;;;;9.10;99.90;;;;;;5008025;28;19910;-77
2023/12/17 06:55:37;;;;;;;;;;;9.10;99.90;;;;;;5010414;28;20286;-76
2023/12/17 06:58:23;;;;;;;;;;;9.10;99.90;;;;;;5013924;28;20376;-76
2023/12/17 07:01:09;;;;;;;;;;;9.10;99.90;;;;;;5019536;28;19928;-76
2023/12/17 07:03:55;;;;;;;;;;;9.10;99.90;;;;;;5014722;28;19940;-76
2023/12/17 07:06:41;;;;;;;;;;;9.10;99.90;;;;;;5006733;28;20571;-77
2023/12/17 07:09:27;;;;;;;;;;;9.10;99.90;;;;;;5039505;28;19913;-76
2023/12/17 07:12:13;;;;;;;;;;;9.10;99.90;;;;;;5035309;28;19948;-76
2023/12/17 07:15:00;;;;;;;;;;;9.10;99.90;;;;;;5014845;28;20246;-76
2023/12/17 07:17:45;;;;;;;;;;;9.10;99.90;;;;;;5029566;28;20233;-76
2023/12/17 07:20:31;;;;;;;;;;;9.10;99.90;;;;;;5013844;28;19920;-75
2023/12/17 07:23:17;;;;;;;;;;;9.10;99.90;;;;;;5033404;28;20376;-75
2023/12/17 07:26:03;;;;;;;;;;;9.10;99.90;;;;;;5036495;28;19909;-75
2023/12/17 07:28:49;;;;;;;;;;;9.10;99.90;;;;;;5021829;28;20376;-75
2023/12/17 07:31:35;;;;;;;;;;;9.10;99.90;;;;;;5021378;28;19913;-75
2023/12/17 07:34:21;;;;;;;;;;;9.10;99.90;;;;;;5021686;28;20278;-76
2023/12/17 07:37:07;;;;;;;;;;;9.10;99.90;;;;;;5019883;28;20246;-76
2023/12/17 07:39:53;;;;;;;;;;;9.10;99.90;;;;;;5020941;28;19992;-76
2023/12/17 07:42:39;;;;;;;;;;;9.10;99.90;;;;;;5020976;28;19923;-75
2023/12/17 07:45:25;;;;;;;;;;;9.10;99.90;;;;;;5011067;28;19967;-75
2023/12/17 07:48:11;;;;;;;;;;;9.10;99.90;;;;;;5036842;28;20314;-75
2023/12/17 07:50:57;;;;;;;;;;;9.10;99.90;;;;;;5023086;28;20307;-75
2023/12/17 07:53:43;;;;;;;;;;;9.10;99.90;;;;;;5023696;28;19909;-75
2023/12/17 07:56:29;;;;;;;;;;;9.20;99.90;;;;;;5014043;28;19964;-75
2023/12/17 07:59:15;;;;;;;;;;;9.20;99.90;;;;;;5009752;28;19909;-76
2023/12/17 08:02:01;;;;;;;;;;;9.20;99.90;;;;;;5020296;28;20375;-76
2023/12/17 08:04:47;;;;;;;;;;;9.20;99.90;;;;;;5018689;28;19909;-76
2023/12/17 08:07:33;;;;;;;;;;;9.20;99.90;;;;;;5039065;28;19913;-75
2023/12/17 08:10:19;;;;;;;;;;;9.20;99.90;;;;;;5037131;28;19913;-75
2023/12/17 08:13:05;;;;;;;;;;;9.20;99.90;;;;;;5037266;28;19920;-75
2023/12/17 08:15:51;;;;;;;;;;;9.20;99.90;;;;;;5037604;28;19942;-77
2023/12/17 08:18:37;;;;;;;;;;;9.20;99.90;;;;;;5024038;28;19971;-75
2023/12/17 08:21:23;;;;;;;;;;;9.20;99.90;;;;;;5010252;28;19944;-75
2023/12/17 08:24:09;;;;;;;;;;;9.30;99.90;;;;;;5010167;28;20372;-76
2023/12/17 08:26:57;;;;;;;;;;;9.20;99.90;;;;;;5010136;28;20289;-75
2023/12/17 08:29:47;;;;;;;;;;;9.20;99.90;;;;;;5010085;28;20242;-75
2023/12/17 08:32:33;;;;;;;;;;;9.20;99.90;;;;;;5024072;28;20374;-75
2023/12/17 08:35:19;;;;;;;;;;;9.20;99.90;;;;;;5010340;28;20259;-76
2023/12/17 08:38:09;;;;;;;;;;;9.20;99.90;;;;;;5023592;28;19913;-76
2023/12/17 08:40:55;;;;;;;;;;;9.20;99.90;;;;;;5024862;28;19935;-76
2023/12/17 08:43:41;;;;;;;;;;;9.20;99.90;;;;;;5024414;28;20614;-75
2023/12/17 08:46:27;;;;;;;;;;;9.20;99.90;;;;;;5037359;28;19920;-75
2023/12/17 08:49:13;;;;;;;;;;;9.30;99.90;;;;;;5022857;28;19909;-75
2023/12/17 08:51:59;;;;;;;;;;;9.30;99.90;;;;;;5024200;28;20354;-75
2023/12/17 08:54:45;;;;;;;;;;;9.20;99.90;;;;;;5022841;28;19910;-76
2023/12/17 08:57:33;;;;;;;;;;;9.30;99.90;;;;;;5029589;28;20336;-76
2023/12/17 09:00:19;;;;;;;;;;;9.30;99.90;;;;;;5023553;28;19996;-75
2023/12/17 09:03:05;;;;;;;;;;;9.30;99.90;;;;;;5009322;28;19992;-75
2023/12/17 09:05:51;;;;;;;;;;;9.30;99.90;;;;;;5022682;28;19996;-75
2023/12/17 09:08:37;;;;;;;;;;;9.30;99.90;;;;;;5024142;28;20254;-76
2023/12/17 09:11:23;;;;;;;;;;;9.30;99.90;;;;;;5021750;28;20377;-76
2023/12/17 09:14:09;;;;;;;;;;;9.30;99.90;;;;;;5009637;28;19917;-76
2023/12/17 09:16:55;;;;;;;;;;;9.30;99.90;;;;;;5012878;28;19967;-76
2023/12/17 09:19:41;;;;;;;;;;;9.30;99.90;;;;;;5020882;28;19959;-76
2023/12/17 09:22:30;;;;;;;;;;;9.40;99.90;;;;;;5022170;28;19913;-76
2023/12/17 09:25:16;;;;;;;;;;;9.40;99.90;;;;;;5022528;28;20326;-76
2023/12/17 09:28:02;;;;;;;;;;;9.40;99.90;;;;;;5023238;28;20300;-76
2023/12/17 09:30:48;;;;;;;;;;;9.40;99.90;;;;;;5022381;28;19909;-76
2023/12/17 09:33:37;;;;;;;;;;;9.40;99.90;;;;;;5007872;28;20575;-76
2023/12/17 09:36:25;;;;;;;;;;;9.40;99.90;;;;;;5021950;28;20302;-77
2023/12/17 09:39:11;;;;;;;;;;;9.40;99.90;;;;;;5021913;28;20294;-76
2023/12/17 09:41:57;;;;;;;;;;;9.40;99.90;;;;;;5008210;28;19988;-76
2023/12/17 09:44:43;;;;;;;;;;;9.40;99.90;;;;;;5022075;28;19966;-76
2023/12/17 09:47:29;;;;;;;;;;;9.40;99.90;;;;;;5021103;28;20363;-76
2023/12/17 09:50:15;;;;;;;;;;;9.40;99.90;;;;;;5008198;28;20000;-78
2023/12/17 09:53:01;;;;;;;;;;;9.40;99.90;;;;;;5008114;28;19910;-76
2023/12/17 09:55:48;;;;;;;;;;;9.50;99.90;;;;;;5003598;28;19921;-77
2023/12/17 09:58:34;;;;;;;;;;;9.50;99.90;;;;;;5008481;28;19924;-75
2023/12/17 10:01:21;;;;;;;;;;;9.50;99.90;;;;;;5034976;28;20008;-77
2023/12/17 10:04:09;;;;;;;;;;;9.60;99.90;;;;;;5015347;28;19992;-75
2023/12/17 10:06:55;;;;;;;;;;;9.60;99.90;;;;;;5006060;28;19992;-76
2023/12/17 10:09:41;;;;;;;;;;;9.60;99.90;;;;;;5008133;28;19913;-76
2023/12/17 10:12:29;;;;;;;;;;;9.70;99.90;;;;;;5013457;28;19909;-76
2023/12/17 10:15:15;;;;;;;;;;;9.70;99.90;;;;;;5008870;28;19920;-77
2023/12/17 10:18:01;;;;;;;;;;;9.70;99.90;;;;;;5022149;28;19917;-76
2023/12/17 10:20:47;;;;;;;;;;;9.70;99.90;;;;;;5027702;28;20207;-76
2023/12/17 10:23:49;;;;;;;;;;;9.60;99.90;;;;;;5035105;28;19920;-76
2023/12/17 10:26:42;;;;;;;;;;;9.70;99.90;;;;;;5021201;28;19927;-76
2023/12/17 10:29:30;;;;;;;;;;;9.70;99.90;;;;;;5012901;28;19909;-76
2023/12/17 10:32:21;;;;;;;;;;;9.70;99.90;;;;;;5026755;28;19917;-76
2023/12/17 10:35:08;;;;;;;;;;;9.90;99.90;;;;;;5020118;28;19909;-77
2023/12/17 10:37:57;;;;;;;;;;;10.00;99.90;;;;;;5020407;28;19913;-76
2023/12/17 10:40:43;;;;;;;;;;;10.20;99.90;;;;;;5021684;28;19916;-77
2023/12/17 10:43:29;;;;;;;;;;;10.40;99.90;;;;;;5022892;28;19924;-76
2023/12/17 10:46:15;;;;;;;;;;;10.80;99.90;;;;;;5034422;28;19936;-77
2023/12/17 10:49:01;;;;;;;;;;;11.10;99.90;;;;;;5001317;28;19909;-76
2023/12/17 10:51:47;;;;;;;;;;;11.20;99.90;;;;;;5002091;28;19913;-76
2023/12/17 10:54:33;;;;;;;;;;;11.40;99.90;;;;;;5022515;28;20127;-76
2023/12/17 10:57:21;;;;;;;;;;;11.40;99.90;;;;;;5020158;28;19916;-75
2023/12/17 11:00:10;;;;;;;;;;;11.40;99.90;;;;;;5016367;28;19920;-76
2023/12/17 11:02:57;;;;;;;;;;;11.60;99.90;;;;;;5007003;28;20289;-75
2023/12/17 11:05:53;;;;;;;;;;;12.00;99.90;;;;;;5007010;28;19915;-75
2023/12/17 11:08:39;;;;;;;;;;;11.90;99.90;;;;;;5022125;28;19999;-76
2023/12/17 11:11:26;;;;;;;;;;;11.80;99.90;;;;;;5007062;28;19917;-75
2023/12/17 11:14:13;;;;;;;;;;;12.00;99.90;;;;;;5029504;28;19913;-76
2023/12/17 11:17:00;;;;;;;;;;;12.00;99.90;;;;;;5021525;28;19917;-75
2023/12/17 11:19:52;;;;;;;;;;;11.90;99.90;;;;;;5008354;28;19909;-77
2023/12/17 11:22:38;;;;;;;;;;;11.80;99.90;;;;;;5039235;28;19909;-75
2023/12/17 11:25:27;;;;;;;;;;;11.80;99.90;;;;;;5010397;28;20368;-77
2023/12/17 11:28:23;;;;;;;;;;;11.60;99.90;;;;;;5012103;28;19909;-76
2023/12/17 11:31:09;;;;;;;;;;;11.60;99.90;;;;;;5025714;28;20235;-75
2023/12/17 11:33:55;;;;;;;;;;;11.50;99.90;;;;;;5004589;28;19921;-76
2023/12/17 11:36:41;;;;;;;;;;;11.60;99.90;;;;;;5025931;28;19913;-76
2023/12/17 11:39:27;;;;;;;;;;;11.70;99.90;;;;;;5022041;28;19924;-76
2023/12/17 11:42:14;;;;;;;;;;;11.70;99.90;;;;;;5034651;28;19919;-76
2023/12/17 11:45:02;;;;;;;;;;;11.60;99.90;;;;;;5025322;28;19920;-74
2023/12/17 11:47:48;;;;;;;;;;;11.80;99.90;;;;;;5004060;28;19913;-75
2023/12/17 11:50:41;;;;;;;;;;;11.60;99.90;;;;;;5006228;28;20318;-78
2023/12/17 11:53:27;;;;;;;;;;;11.80;99.90;;;;;;5005097;28;19913;-75
2023/12/17 11:56:13;;;;;;;;;;;11.80;99.90;;;;;;4997337;28;19949;-75
2023/12/17 11:59:00;;;;;;;;;;;11.90;99.90;;;;;;5041772;28;20577;-75
2023/12/17 12:01:46;;;;;;;;;;;11.60;99.90;;;;;;5023741;28;20313;-77
2023/12/17 12:04:41;;;;;;;;;;;11.60;99.90;;;;;;5037797;28;20004;-75
2023/12/17 12:07:28;;;;;;;;;;;11.70;99.90;;;;;;5010507;28;19909;-76
2023/12/17 12:10:14;;;;;;;;;;;11.80;99.90;;;;;;5037906;28;19919;-75
2023/12/17 12:13:03;;;;;;;;;;;11.50;99.90;;;;;;5010299;28;19963;-75
2023/12/17 12:15:49;;;;;;;;;;;11.50;99.90;;;;;;5009488;28;19919;-76
2023/12/17 12:18:35;;;;;;;;;;;11.60;99.90;;;;;;5037923;28;19917;-76
2023/12/17 12:21:24;;;;;;;;;;;11.70;99.90;;;;;;5019465;28;19913;-75
2023/12/17 12:24:10;;;;;;;;;;;11.60;99.90;;;;;;5025874;28;19936;-76
2023/12/17 12:26:57;;;;;;;;;;;11.80;99.90;;;;;;5024293;28;19971;-77
2023/12/17 12:29:47;;;;;;;;;;;11.50;99.90;;;;;;5037711;28;19917;-76
2023/12/17 12:32:33;;;;;;;;;;;11.30;99.90;;;;;;5011124;28;19909;-77
2023/12/17 12:35:20;;;;;;;;;;;11.30;99.90;;;;;;5037451;28;19917;-75
2023/12/17 12:38:20;;;;;;;;;;;11.30;99.90;;;;;;5024011;28;20000;-77
2023/12/17 12:41:13;;;;;;;;;;;11.50;99.90;;;;;;5023755;28;19944;-76
2023/12/17 12:43:59;;;;;;;;;;;11.50;99.90;;;;;;5010731;28;20352;-76
2023/12/17 12:46:49;;;;;;;;;;;11.70;99.90;;;;;;5023957;28;19936;-76
2023/12/17 12:49:35;;;;;;;;;;;11.40;99.90;;;;;;5019612;28;19909;-77
2023/12/17 12:52:21;;;;;;;;;;;11.50;99.90;;;;;;5023112;28;19913;-75
2023/12/17 12:55:08;;;;;;;;;;;11.20;99.90;;;;;;5033000;28;19909;-75
2023/12/17 12:57:54;;;;;;;;;;;11.30;99.90;;;;;;5010141;28;20368;-75
2023/12/17 13:00:44;;;;;;;;;;;11.30;99.90;;;;;;5008877;28;19909;-76
2023/12/17 13:03:30;;;;;;;;;;;11.40;99.90;;;;;;5023393;28;19939;-76
2023/12/17 13:06:16;;;;;;;;;;;11.10;99.90;;;;;;5010710;28;19913;-75
2023/12/17 13:09:04;;;;;;;;;;;11.10;99.90;;;;;;5038670;28;19909;-75
2023/12/17 13:11:52;;;;;;;;;;;10.90;99.90;;;;;;4994891;28;19995;-76
2023/12/17 13:14:38;;;;;;;;;;;10.70;99.90;;;;;;5022662;28;19949;-76
2023/12/17 13:17:24;;;;;;;;;;;10.80;99.90;;;;;;5014991;28;19913;-75
2023/12/17 13:20:10;;;;;;;;;;;10.70;99.90;;;;;;5027048;28;19908;-74
2023/12/17 13:22:56;;;;;;;;;;;10.60;99.90;;;;;;5023697;28;19919;-75
2023/12/17 13:25:43;;;;;;;;;;;10.50;99.90;;;;;;4990208;28;20307;-75
2023/12/17 13:28:29;;;;;;;;;;;10.40;99.90;;;;;;5017568;28;19913;-75
2023/12/17 13:31:16;;;;;;;;;;;10.30;99.90;;;;;;5036825;28;19963;-76
2023/12/17 13:34:02;;;;;;;;;;;10.30;99.90;;;;;;5009645;28;19917;-75
2023/12/17 13:36:49;;;;;;;;;;;10.40;99.90;;;;;;5036570;28;20007;-76
2023/12/17 13:39:38;;;;;;;;;;;10.40;99.90;;;;;;5024846;28;19909;-76
2023/12/17 13:42:25;;;;;;;;;;;10.20;99.90;;;;;;5023073;28;19931;-77
2023/12/17 13:45:14;;;;;;;;;;;10.20;99.90;;;;;;5029313;28;20014;-74
2023/12/17 13:48:00;;;;;;;;;;;10.20;99.90;;;;;;5009196;28;19909;-75
2023/12/17 13:50:46;;;;;;;;;;;10.10;99.90;;;;;;5021883;28;19917;-76
2023/12/17 13:53:32;;;;;;;;;;;10.20;99.90;;;;;;5009658;28;19909;-76
2023/12/17 13:56:18;;;;;;;;;;;10.20;99.90;;;;;;5017484;28;20277;-75
2023/12/17 13:59:04;;;;;;;;;;;10.10;99.90;;;;;;5019124;28;19909;-75
2023/12/17 14:01:50;;;;;;;;;;;9.90;99.90;;;;;;5037804;28;19920;-75
2023/12/17 14:04:36;;;;;;;;;;;10.00;99.90;;;;;;5022047;28;19962;-75
2023/12/17 14:07:22;;;;;;;;;;;9.90;99.90;;;;;;4990335;28;19909;-74
2023/12/17 14:10:10;;;;;;;;;;;9.70;99.90;;;;;;5003839;28;19910;-75
2023/12/17 14:12:58;;;;;;;;;;;9.80;99.90;;;;;;5018877;28;19920;-74
2023/12/17 14:15:44;;;;;;;;;;;9.70;99.90;;;;;;5021363;28;19908;-75
2023/12/17 14:18:30;;;;;;;;;;;9.60;99.90;;;;;;5007975;28;19928;-74
2023/12/17 14:21:16;;;;;;;;;;;9.40;99.90;;;;;;5008041;28;20214;-74
2023/12/17 14:24:03;;;;;;;;;;;9.50;99.90;;;;;;5018624;28;19908;-75
2023/12/17 14:26:49;;;;;;;;;;;9.40;99.90;;;;;;5004376;28;19920;-75
2023/12/17 14:29:36;;;;;;;;;;;9.40;99.90;;;;;;5021251;28;19967;-75
2023/12/17 14:32:22;;;;;;;;;;;9.40;99.90;;;;;;5022109;28;19909;-75
2023/12/17 14:35:09;;;;;;;;;;;9.40;99.90;;;;;;5022010;28;19995;-75
2023/12/17 14:37:55;;;;;;;;;;;9.30;99.90;;;;;;5003458;28;19913;-75
2023/12/17 14:40:41;;;;;;;;;;;9.30;99.90;;;;;;5014135;28;19940;-75
2023/12/17 14:43:27;;;;;;;;;;;9.10;99.90;;;;;;5014830;28;20298;-74
2023/12/17 14:46:13;;;;;;;;;;;9.10;99.90;;;;;;5006788;28;19991;-75
2023/12/17 14:48:59;;;;;;;;;;;9.00;99.90;;;;;;5021561;28;19913;-75
2023/12/17 14:51:45;;;;;;;;;;;8.90;99.90;;;;;;5009730;28;19923;-75
2023/12/17 14:54:33;;;;;;;;;;;8.90;99.90;;;;;;5020397;28;20305;-75
2023/12/17 14:57:18;;;;;;;;;;;8.80;99.90;;;;;;5011933;28;19913;-75
2023/12/17 15:00:05;;;;;;;;;;;8.80;99.90;;;;;;5004978;28;20396;-75
2023/12/17 15:02:51;;;;;;;;;;;8.70;99.90;;;;;;5009489;28;19921;-75
2023/12/17 15:05:40;;;;;;;;;;;8.70;99.90;;;;;;5021391;28;19913;-76
2023/12/17 15:08:27;;;;;;;;;;;8.50;99.90;;;;;;5020486;28;19999;-74
2023/12/17 15:11:14;;;;;;;;;;;8.50;99.90;;;;;;5000873;28;20303;-76
2023/12/17 15:14:00;;;;;;;;;;;8.50;99.90;;;;;;5015273;28;19944;-76
2023/12/17 15:16:46;;;;;;;;;;;8.40;99.90;;;;;;5003673;28;19996;-76
2023/12/17 15:19:36;;;;;;;;;;;8.30;99.90;;;;;;5022884;28;20550;-76
2023/12/17 15:22:22;;;;;;;;;;;8.30;99.90;;;;;;4987959;28;19920;-77
2023/12/17 15:25:08;;;;;;;;;;;8.20;99.90;;;;;;4992119;28;19909;-76
2023/12/17 15:27:54;;;;;;;;;;;8.20;99.90;;;;;;5033998;28;19987;-76
2023/12/17 15:30:40;;;;;;;;;;;8.20;99.90;;;;;;5034300;28;20345;-76
2023/12/17 15:33:26;;;;;;;;;;;8.10;99.90;;;;;;5033850;28;19913;-76
2023/12/17 15:36:12;;;;;;;;;;;8.10;99.90;;;;;;5016183;28;19909;-76
2023/12/17 15:38:58;;;;;;;;;;;8.00;99.90;;;;;;5029523;28;20273;-76
2023/12/17 15:41:47;;;;;;;;;;;8.00;99.90;;;;;;5021522;28;20008;-76
2023/12/17 15:44:33;;;;;;;;;;;7.90;99.90;;;;;;5035130;28;20314;-76
2023/12/17 15:47:19;;;;;;;;;;;7.90;99.90;;;;;;5034606;28;19982;-76
2023/12/17 15:50:05;;;;;;;;;;;7.90;99.90;;;;;;5015661;28;19968;-77
2023/12/17 15:52:51;;;;;;;;;;;7.80;99.90;;;;;;5031956;28;19913;-76
2023/12/17 15:55:37;;;;;;;;;;;7.80;99.90;;;;;;5002432;28;20423;-76
2023/12/17 15:58:23;;;;;;;;;;;7.70;99.90;;;;;;5014847;28;19925;-76
2023/12/17 16:01:09;;;;;;;;;;;7.70;99.90;;;;;;5008365;28;19920;-76
2023/12/17 16:03:55;;;;;;;;;;;7.70;99.90;;;;;;5000327;28;19927;-76
2023/12/17 16:06:41;;;;;;;;;;;7.70;99.90;;;;;;5015920;28;20055;-76
2023/12/17 16:09:27;;;;;;;;;;;7.70;99.90;;;;;;5004700;28;19986;-76
2023/12/17 16:12:15;;;;;;;;;;;7.60;99.90;;;;;;4984176;28;19914;-76
2023/12/17 16:15:01;;;;;;;;;;;7.60;99.90;;;;;;4986254;28;19920;-77
2023/12/17 16:17:47;;;;;;;;;;;7.60;99.90;;;;;;5022692;28;19956;-77
2023/12/17 16:20:33;;;;;;;;;;;7.60;99.90;;;;;;5002929;28;19920;-76